sensor_id;sensor_type;location;lat;lon;timestamp;pressure;altitude;pressure_sealevel;temperature;humidity
49397;BME280;35615;41.410;2.194;2023-10-09T00:00:59;102330.19;;;26.57;56.39
49397;BME280;35615;41.410;2.194;2023-10-09T00:03:47;102332.84;;;26.63;56.15
49397;BME280;35615;41.410;2.194;2023-10-09T00:06:37;102331.06;;;26.65;55.91
49397;BME280;35615;41.410;2.194;2023-10-09T00:09:12;102333.72;;;26.57;56.03
49397;BME280;35615;41.410;2.194;2023-10-09T00:12:09;102334.63;;;26.49;56.46
49397;BME280;35615;41.410;2.194;2023-10-09T00:15:01;102332.88;;;26.54;56.11
49397;BME280;35615;41.410;2.194;2023-10-09T00:20:50;102339.06;;;26.47;56.65
49397;BME280;35615;41.410;2.194;2023-10-09T00:23:28;102340.84;;;26.43;56.91
49397;BME280;35615;41.410;2.194;2023-10-09T00:26:08;102342.59;;;26.44;56.84
49397;BME280;35615;41.410;2.194;2023-10-09T00:28:54;102332.00;;;26.37;56.80
49397;BME280;35615;41.410;2.194;2023-10-09T00:31:35;102341.72;;;26.45;56.34
49397;BME280;35615;41.410;2.194;2023-10-09T00:34:06;102323.16;;;26.33;57.10
49397;BME280;35615;41.410;2.194;2023-10-09T00:36:42;102325.81;;;26.45;56.68
49397;BME280;35615;41.410;2.194;2023-10-09T00:39:33;102322.28;;;26.26;57.17
49397;BME280;35615;41.410;2.194;2023-10-09T00:42:10;102324.91;;;26.35;56.50
49397;BME280;35615;41.410;2.194;2023-10-09T00:44:52;102319.66;;;26.39;56.66
49397;BME280;35615;41.410;2.194;2023-10-09T00:50:20;102324.03;;;26.35;56.86
49397;BME280;35615;41.410;2.194;2023-10-09T00:52:56;102319.66;;;26.23;56.82
49397;BME280;35615;41.410;2.194;2023-10-09T00:55:50;102317.91;;;26.19;57.05
49397;BME280;35615;41.410;2.194;2023-10-09T00:58:32;102320.53;;;26.31;57.02
49397;BME280;35615;41.410;2.194;2023-10-09T01:01:07;102317.03;;;26.06;57.45
49397;BME280;35615;41.410;2.194;2023-10-09T01:03:45;102317.00;;;26.23;56.82
49397;BME280;35615;41.410;2.194;2023-10-09T01:06:19;102312.63;;;26.16;57.32
49397;BME280;35615;41.410;2.194;2023-10-09T01:08:56;102316.16;;;26.01;57.60
49397;BME280;35615;41.410;2.194;2023-10-09T01:11:48;102317.94;;;25.95;57.86
49397;BME280;35615;41.410;2.194;2023-10-09T01:14:33;102314.41;;;26.05;57.56
49397;BME280;35615;41.410;2.194;2023-10-09T01:17:08;102311.75;;;26.06;57.62
49397;BME280;35615;41.410;2.194;2023-10-09T01:19:39;102308.22;;;25.97;58.21
49397;BME280;35615;41.410;2.194;2023-10-09T01:22:19;102309.97;;;26.01;58.28
49397;BME280;35615;41.410;2.194;2023-10-09T01:24:57;102302.91;;;26.00;57.75
49397;BME280;35615;41.410;2.194;2023-10-09T01:27:40;102314.41;;;25.97;57.65
49397;BME280;35615;41.410;2.194;2023-10-09T01:30:24;102301.16;;;25.91;57.88
49397;BME280;35615;41.410;2.194;2023-10-09T01:36:06;102298.50;;;25.94;57.97
49397;BME280;35615;41.410;2.194;2023-10-09T01:41:25;102294.09;;;25.90;58.17
49397;BME280;35615;41.410;2.194;2023-10-09T01:43:56;102290.56;;;25.94;58.36
49397;BME280;35615;41.410;2.194;2023-10-09T01:46:30;102290.56;;;25.96;57.87
49397;BME280;35615;41.410;2.194;2023-10-09T01:49:06;102294.97;;;25.88;57.84
49397;BME280;35615;41.410;2.194;2023-10-09T01:51:51;102292.31;;;25.94;57.96
49397;BME280;35615;41.410;2.194;2023-10-09T01:54:26;102290.56;;;25.88;57.88
49397;BME280;35615;41.410;2.194;2023-10-09T01:57:28;102284.38;;;25.89;58.07
49397;BME280;35615;41.410;2.194;2023-10-09T02:00:07;102285.28;;;25.88;58.04
49397;BME280;35615;41.410;2.194;2023-10-09T02:03:18;102269.38;;;25.90;58.22
49397;BME280;35615;41.410;2.194;2023-10-09T02:05:46;102272.91;;;25.96;57.78
49397;BME280;35615;41.410;2.194;2023-10-09T02:08:37;102271.16;;;25.95;57.92
49397;BME280;35615;41.410;2.194;2023-10-09T02:11:21;102270.25;;;25.92;58.34
49397;BME280;35615;41.410;2.194;2023-10-09T02:14:07;102275.56;;;25.95;58.44
49397;BME280;35615;41.410;2.194;2023-10-09T02:16:58;102270.25;;;25.98;57.84
49397;BME280;35615;41.410;2.194;2023-10-09T02:19:30;102268.47;;;25.92;58.09
49397;BME280;35615;41.410;2.194;2023-10-09T02:22:08;102265.88;;;25.83;58.54
49397;BME280;35615;41.410;2.194;2023-10-09T02:24:48;102264.97;;;25.95;58.32
49397;BME280;35615;41.410;2.194;2023-10-09T02:27:23;102264.97;;;25.90;58.08
49397;BME280;35615;41.410;2.194;2023-10-09T02:30:29;102272.03;;;25.84;58.69
49397;BME280;35615;41.410;2.194;2023-10-09T02:35:59;102273.81;;;25.77;59.05
49397;BME280;35615;41.410;2.194;2023-10-09T02:38:33;102267.63;;;25.76;59.14
49397;BME280;35615;41.410;2.194;2023-10-09T02:41:27;102272.03;;;25.88;58.57
49397;BME280;35615;41.410;2.194;2023-10-09T02:44:01;102270.28;;;25.76;59.21
49397;BME280;35615;41.410;2.194;2023-10-09T02:46:46;102267.63;;;25.75;58.72
49397;BME280;35615;41.410;2.194;2023-10-09T02:49:27;102271.13;;;25.71;59.43
49397;BME280;35615;41.410;2.194;2023-10-09T02:51:56;102265.84;;;25.78;59.11
49397;BME280;35615;41.410;2.194;2023-10-09T02:54:33;102269.38;;;25.70;59.32
49397;BME280;35615;41.410;2.194;2023-10-09T02:57:14;102269.38;;;25.71;58.92
49397;BME280;35615;41.410;2.194;2023-10-09T03:00:08;102278.19;;;25.70;59.18
49397;BME280;35615;41.410;2.194;2023-10-09T03:02:39;102266.72;;;25.70;59.25
49397;BME280;35615;41.410;2.194;2023-10-09T03:05:31;102279.09;;;25.75;59.11
49397;BME280;35615;41.410;2.194;2023-10-09T03:08:29;102267.59;;;25.67;58.94
49397;BME280;35615;41.410;2.194;2023-10-09T03:10:58;102271.13;;;25.65;58.84
49397;BME280;35615;41.410;2.194;2023-10-09T03:13:27;102272.00;;;25.64;59.29
49397;BME280;35615;41.410;2.194;2023-10-09T03:15:57;102266.72;;;25.62;59.29
49397;BME280;35615;41.410;2.194;2023-10-09T03:18:33;102270.25;;;25.51;59.43
49397;BME280;35615;41.410;2.194;2023-10-09T03:21:10;102269.34;;;25.56;59.27
49397;BME280;35615;41.410;2.194;2023-10-09T03:23:40;102266.72;;;25.62;58.78
49397;BME280;35615;41.410;2.194;2023-10-09T03:26:10;102266.72;;;25.55;59.13
49397;BME280;35615;41.410;2.194;2023-10-09T03:28:53;102266.72;;;25.55;59.11
49397;BME280;35615;41.410;2.194;2023-10-09T03:31:24;102269.34;;;25.42;59.58
49397;BME280;35615;41.410;2.194;2023-10-09T03:33:58;102272.88;;;25.49;59.02
49397;BME280;35615;41.410;2.194;2023-10-09T03:36:29;102276.41;;;25.57;59.06
49397;BME280;35615;41.410;2.194;2023-10-09T03:38:57;102279.94;;;25.55;58.92
49397;BME280;35615;41.410;2.194;2023-10-09T03:41:30;102277.28;;;25.44;59.35
49397;BME280;35615;41.410;2.194;2023-10-09T03:43:58;102272.88;;;25.46;59.29
49397;BME280;35615;41.410;2.194;2023-10-09T03:46:27;102277.31;;;25.53;59.03
49397;BME280;35615;41.410;2.194;2023-10-09T03:48:59;102279.94;;;25.41;59.16
49397;BME280;35615;41.410;2.194;2023-10-09T03:51:28;102279.06;;;25.45;59.41
49397;BME280;35615;41.410;2.194;2023-10-09T03:53:59;102285.22;;;25.42;59.29
49397;BME280;35615;41.410;2.194;2023-10-09T03:56:34;102277.28;;;25.38;59.12
49397;BME280;35615;41.410;2.194;2023-10-09T03:59:02;102283.44;;;25.49;59.08
49397;BME280;35615;41.410;2.194;2023-10-09T04:01:31;102282.56;;;25.36;59.12
49397;BME280;35615;41.410;2.194;2023-10-09T04:04:12;102279.94;;;25.47;59.10
49397;BME280;35615;41.410;2.194;2023-10-09T04:06:42;102277.28;;;25.30;59.16
49397;BME280;35615;41.410;2.194;2023-10-09T04:09:14;102280.81;;;25.35;59.52
49397;BME280;35615;41.410;2.194;2023-10-09T04:11:51;102274.63;;;25.47;59.07
49397;BME280;35615;41.410;2.194;2023-10-09T04:14:40;102272.88;;;25.34;59.56
49397;BME280;35615;41.410;2.194;2023-10-09T04:17:28;102275.50;;;25.34;59.13
49397;BME280;35615;41.410;2.194;2023-10-09T04:20:01;102271.09;;;25.36;59.38
49397;BME280;35615;41.410;2.194;2023-10-09T04:22:47;102272.88;;;25.32;59.16
49397;BME280;35615;41.410;2.194;2023-10-09T04:25:21;102280.81;;;25.31;59.12
49397;BME280;35615;41.410;2.194;2023-10-09T04:28:01;102275.50;;;25.22;59.37
49397;BME280;35615;41.410;2.194;2023-10-09T04:30:48;102267.56;;;25.26;59.61
49397;BME280;35615;41.410;2.194;2023-10-09T04:33:25;102276.41;;;25.31;59.35
49397;BME280;35615;41.410;2.194;2023-10-09T04:36:10;102269.34;;;25.32;59.07
49397;BME280;35615;41.410;2.194;2023-10-09T04:38:53;102274.63;;;25.29;59.41
49397;BME280;35615;41.410;2.194;2023-10-09T04:44:35;102274.63;;;25.23;59.08
49397;BME280;35615;41.410;2.194;2023-10-09T04:47:04;102277.25;;;25.18;59.36
49397;BME280;35615;41.410;2.194;2023-10-09T04:49:42;102275.47;;;25.15;59.43
49397;BME280;35615;41.410;2.194;2023-10-09T04:52:15;102282.56;;;25.16;59.32
49397;BME280;35615;41.410;2.194;2023-10-09T04:55:07;102275.50;;;25.20;59.37
49397;BME280;35615;41.410;2.194;2023-10-09T04:57:42;102278.16;;;25.18;59.45
49397;BME280;35615;41.410;2.194;2023-10-09T05:00:32;102281.66;;;25.17;59.38
49397;BME280;35615;41.410;2.194;2023-10-09T05:03:14;102279.88;;;25.13;59.43
49397;BME280;35615;41.410;2.194;2023-10-09T05:06:10;102278.13;;;25.12;59.33
49397;BME280;35615;41.410;2.194;2023-10-09T05:08:57;102285.16;;;25.07;59.40
49397;BME280;35615;41.410;2.194;2023-10-09T05:11:37;102283.41;;;25.06;59.36
49397;BME280;35615;41.410;2.194;2023-10-09T05:14:39;102278.94;;;25.01;59.68
49397;BME280;35615;41.410;2.194;2023-10-09T05:17:28;102287.72;;;24.93;59.86
49397;BME280;35615;41.410;2.194;2023-10-09T05:19:55;102280.63;;;24.79;60.30
49397;BME280;35615;41.410;2.194;2023-10-09T05:22:45;102285.06;;;24.87;60.57
49397;BME280;35615;41.410;2.194;2023-10-09T05:25:33;102292.16;;;24.96;60.24
49397;BME280;35615;41.410;2.194;2023-10-09T05:28:30;102289.47;;;24.88;60.38
49397;BME280;35615;41.410;2.194;2023-10-09T05:31:17;102297.41;;;24.85;60.28
49397;BME280;35615;41.410;2.194;2023-10-09T05:34:05;102293.88;;;24.85;60.03
49397;BME280;35615;41.410;2.194;2023-10-09T05:36:35;102296.63;;;25.06;59.68
49397;BME280;35615;41.410;2.194;2023-10-09T05:39:03;102293.88;;;24.94;59.85
49397;BME280;35615;41.410;2.194;2023-10-09T05:42:08;102303.56;;;24.92;59.81
49397;BME280;35615;41.410;2.194;2023-10-09T05:44:55;102302.69;;;24.93;59.89
49397;BME280;35615;41.410;2.194;2023-10-09T05:47:46;102301.84;;;24.97;59.57
49397;BME280;35615;41.410;2.194;2023-10-09T05:50:49;102295.66;;;24.86;59.22
49397;BME280;35615;41.410;2.194;2023-10-09T05:53:35;102301.81;;;24.89;59.82
49397;BME280;35615;41.410;2.194;2023-10-09T05:56:12;102307.06;;;24.74;60.10
49397;BME280;35615;41.410;2.194;2023-10-09T05:59:02;102307.06;;;24.80;59.57
49397;BME280;35615;41.410;2.194;2023-10-09T06:01:49;102304.38;;;24.71;59.96
49397;BME280;35615;41.410;2.194;2023-10-09T06:04:31;102301.81;;;24.92;59.49
49397;BME280;35615;41.410;2.194;2023-10-09T06:07:34;102307.13;;;24.97;59.27
49397;BME280;35615;41.410;2.194;2023-10-09T06:10:17;102301.81;;;24.94;59.00
49397;BME280;35615;41.410;2.194;2023-10-09T06:13:05;102307.13;;;24.99;58.82
49397;BME280;35615;41.410;2.194;2023-10-09T06:15:36;102308.97;;;25.09;58.69
49397;BME280;35615;41.410;2.194;2023-10-09T06:18:16;102310.72;;;25.08;58.30
49397;BME280;35615;41.410;2.194;2023-10-09T06:21:04;102315.19;;;25.18;57.83
49397;BME280;35615;41.410;2.194;2023-10-09T06:23:35;102313.38;;;25.05;58.36
49397;BME280;35615;41.410;2.194;2023-10-09T06:26:42;102309.78;;;24.99;58.42
49397;BME280;35615;41.410;2.194;2023-10-09T06:29:41;102311.59;;;25.04;58.41
49397;BME280;35615;41.410;2.194;2023-10-09T06:32:13;102318.66;;;25.11;58.13
49397;BME280;35615;41.410;2.194;2023-10-09T06:34:56;102313.34;;;25.02;58.02
49397;BME280;35615;41.410;2.194;2023-10-09T06:37:45;102322.19;;;25.13;58.21
49397;BME280;35615;41.410;2.194;2023-10-09T06:40:35;102323.97;;;25.10;57.72
49397;BME280;35615;41.410;2.194;2023-10-09T06:43:21;102330.91;;;24.89;58.40
49397;BME280;35615;41.410;2.194;2023-10-09T06:45:49;102330.06;;;24.97;57.85
49397;BME280;35615;41.410;2.194;2023-10-09T06:48:25;102328.25;;;24.85;58.11
49397;BME280;35615;41.410;2.194;2023-10-09T06:51:05;102331.00;;;25.06;58.40
49397;BME280;35615;41.410;2.194;2023-10-09T06:54:07;102345.00;;;24.91;57.78
49397;BME280;35615;41.410;2.194;2023-10-09T06:56:37;102345.03;;;24.95;58.11
49397;BME280;35615;41.410;2.194;2023-10-09T06:59:10;102343.19;;;24.80;57.69
49397;BME280;35615;41.410;2.194;2023-10-09T07:01:54;102341.44;;;24.82;57.77
49397;BME280;35615;41.410;2.194;2023-10-09T07:04:52;102347.69;;;24.96;57.57
49397;BME280;35615;41.410;2.194;2023-10-09T07:07:22;102352.03;;;24.86;57.63
49397;BME280;35615;41.410;2.194;2023-10-09T07:09:51;102352.94;;;24.87;57.56
49397;BME280;35615;41.410;2.194;2023-10-09T07:12:37;102352.94;;;24.93;57.12
49397;BME280;35615;41.410;2.194;2023-10-09T07:15:11;102352.06;;;24.94;57.46
49397;BME280;35615;41.410;2.194;2023-10-09T07:17:38;102355.56;;;24.88;57.51
49397;BME280;35615;41.410;2.194;2023-10-09T07:20:07;102360.03;;;25.00;57.35
49397;BME280;35615;41.410;2.194;2023-10-09T07:23:06;102367.91;;;24.89;56.95
49397;BME280;35615;41.410;2.194;2023-10-09T07:25:42;102374.13;;;24.95;56.90
49397;BME280;35615;41.410;2.194;2023-10-09T07:28:12;102368.91;;;25.10;57.15
49397;BME280;35615;41.410;2.194;2023-10-09T07:30:56;102376.88;;;25.19;56.58
49397;BME280;35615;41.410;2.194;2023-10-09T07:33:30;102369.88;;;25.32;56.29
49397;BME280;35615;41.410;2.194;2023-10-09T07:36:25;102377.78;;;25.24;56.25
49397;BME280;35615;41.410;2.194;2023-10-09T07:39:06;102383.09;;;25.32;56.23
49397;BME280;35615;41.410;2.194;2023-10-09T07:41:41;102380.41;;;25.19;56.41
49397;BME280;35615;41.410;2.194;2023-10-09T07:44:30;102377.84;;;25.44;56.17
49397;BME280;35615;41.410;2.194;2023-10-09T07:47:06;102383.13;;;25.45;56.27
49397;BME280;35615;41.410;2.194;2023-10-09T07:49:57;102386.72;;;25.61;55.79
49397;BME280;35615;41.410;2.194;2023-10-09T07:52:26;102383.19;;;25.67;55.64
49397;BME280;35615;41.410;2.194;2023-10-09T07:54:55;102377.94;;;25.87;55.24
49397;BME280;35615;41.410;2.194;2023-10-09T07:57:34;102391.19;;;26.02;55.03
49397;BME280;35615;41.410;2.194;2023-10-09T08:00:10;102384.13;;;26.15;54.53
49397;BME280;35615;41.410;2.194;2023-10-09T08:03:01;102386.75;;;26.34;54.41
49397;BME280;35615;41.410;2.194;2023-10-09T08:05:42;102378.78;;;26.59;53.35
49397;BME280;35615;41.410;2.194;2023-10-09T08:08:12;102380.50;;;26.83;52.99
49397;BME280;35615;41.410;2.194;2023-10-09T08:11:09;102385.72;;;27.13;52.33
49397;BME280;35615;41.410;2.194;2023-10-09T08:13:55;102378.53;;;27.35;51.27
49397;BME280;35615;41.410;2.194;2023-10-09T08:16:27;102378.53;;;27.34;50.83
49397;BME280;35615;41.410;2.194;2023-10-09T08:19:04;102381.88;;;27.72;50.30
49397;BME280;35615;41.410;2.194;2023-10-09T08:21:53;102379.06;;;27.89;50.04
49397;BME280;35615;41.410;2.194;2023-10-09T08:24:40;102384.13;;;28.21;49.29
49397;BME280;35615;41.410;2.194;2023-10-09T08:27:26;102378.66;;;28.41;48.76
49397;BME280;35615;41.410;2.194;2023-10-09T08:30:07;102384.63;;;28.63;48.36
49397;BME280;35615;41.410;2.194;2023-10-09T08:32:46;102377.28;;;28.82;48.08
49397;BME280;35615;41.410;2.194;2023-10-09T08:35:43;102384.88;;;29.18;46.95
49397;BME280;35615;41.410;2.194;2023-10-09T08:38:18;102382.81;;;29.37;46.70
49397;BME280;35615;41.410;2.194;2023-10-09T08:40:53;102380.91;;;29.50;45.96
49397;BME280;35615;41.410;2.194;2023-10-09T08:43:29;102377.38;;;29.45;46.71
49397;BME280;35615;41.410;2.194;2023-10-09T08:46:04;102387.69;;;29.71;45.58
49397;BME280;35615;41.410;2.194;2023-10-09T08:48:56;102394.66;;;29.79;45.52
49397;BME280;35615;41.410;2.194;2023-10-09T08:51:29;102395.34;;;29.91;45.05
49397;BME280;35615;41.410;2.194;2023-10-09T08:54:00;102387.84;;;30.17;44.61
49397;BME280;35615;41.410;2.194;2023-10-09T08:56:34;102386.81;;;30.24;45.13
49397;BME280;35615;41.410;2.194;2023-10-09T08:59:02;102388.06;;;30.53;44.37
49397;BME280;35615;41.410;2.194;2023-10-09T09:01:35;102388.84;;;30.58;44.08
49397;BME280;35615;41.410;2.194;2023-10-09T09:04:06;102387.94;;;30.59;44.64
49397;BME280;35615;41.410;2.194;2023-10-09T09:06:39;102388.38;;;30.85;43.86
49397;BME280;35615;41.410;2.194;2023-10-09T09:09:13;102388.38;;;30.85;43.74
49397;BME280;35615;41.410;2.194;2023-10-09T09:11:44;102390.41;;;31.14;43.08
49397;BME280;35615;41.410;2.194;2023-10-09T09:14:18;102379.63;;;31.20;43.37
49397;BME280;35615;41.410;2.194;2023-10-09T09:16:49;102381.31;;;31.26;43.04
49397;BME280;35615;41.410;2.194;2023-10-09T09:19:20;102381.78;;;31.02;43.07
49397;BME280;35615;41.410;2.194;2023-10-09T09:22:00;102375.41;;;31.09;43.14
49397;BME280;35615;41.410;2.194;2023-10-09T09:24:38;102369.63;;;31.30;43.22
49397;BME280;35615;41.410;2.194;2023-10-09T09:27:06;102371.44;;;31.67;42.15
49397;BME280;35615;41.410;2.194;2023-10-09T09:29:46;102356.13;;;31.73;41.68
49397;BME280;35615;41.410;2.194;2023-10-09T09:32:31;102369.66;;;32.03;41.22
49397;BME280;35615;41.410;2.194;2023-10-09T09:35:16;102363.19;;;32.12;41.57
49397;BME280;35615;41.410;2.194;2023-10-09T09:37:54;102361.03;;;32.26;41.16
49397;BME280;35615;41.410;2.194;2023-10-09T09:40:22;102359.44;;;32.19;41.33
49397;BME280;35615;41.410;2.194;2023-10-09T09:43:04;102357.16;;;32.39;40.91
49397;BME280;35615;41.410;2.194;2023-10-09T09:45:38;102357.31;;;32.33;40.80
49397;BME280;35615;41.410;2.194;2023-10-09T09:48:14;102354.16;;;32.17;40.96
49397;BME280;35615;41.410;2.194;2023-10-09T09:50:43;102350.00;;;32.05;40.76
49397;BME280;35615;41.410;2.194;2023-10-09T09:53:13;102352.91;;;31.96;40.74
49397;BME280;35615;41.410;2.194;2023-10-09T09:55:50;102346.06;;;32.53;40.29
49397;BME280;35615;41.410;2.194;2023-10-09T09:58:30;102353.72;;;32.34;39.95
49397;BME280;35615;41.410;2.194;2023-10-09T10:01:13;102351.22;;;32.59;40.34
49397;BME280;35615;41.410;2.194;2023-10-09T10:03:59;102344.56;;;31.74;41.13
49397;BME280;35615;41.410;2.194;2023-10-09T10:06:43;102342.44;;;32.21;40.34
49397;BME280;35615;41.410;2.194;2023-10-09T10:09:33;102347.94;;;32.49;39.60
49397;BME280;35615;41.410;2.194;2023-10-09T10:12:08;102337.25;;;32.79;39.31
49397;BME280;35615;41.410;2.194;2023-10-09T10:14:55;102337.38;;;32.76;39.38
49397;BME280;35615;41.410;2.194;2023-10-09T10:20:30;102334.06;;;32.35;40.13
49397;BME280;35615;41.410;2.194;2023-10-09T10:23:15;102320.97;;;32.88;39.22
49397;BME280;35615;41.410;2.194;2023-10-09T10:25:46;102322.94;;;33.67;37.63
49397;BME280;35615;41.410;2.194;2023-10-09T10:28:23;102322.59;;;33.21;37.37
49397;BME280;35615;41.410;2.194;2023-10-09T10:31:18;102317.72;;;33.34;37.66
49397;BME280;35615;41.410;2.194;2023-10-09T10:36:32;102315.19;;;33.84;36.51
49397;BME280;35615;41.410;2.194;2023-10-09T10:39:05;102311.44;;;33.37;37.01
49397;BME280;35615;41.410;2.194;2023-10-09T10:44:35;102310.91;;;33.78;35.19
49397;BME280;35615;41.410;2.194;2023-10-09T10:47:16;102300.25;;;33.77;35.31
49397;BME280;35615;41.410;2.194;2023-10-09T10:50:00;102302.00;;;34.29;34.44
49397;BME280;35615;41.410;2.194;2023-10-09T10:52:38;102300.69;;;34.41;34.57
49397;BME280;35615;41.410;2.194;2023-10-09T10:55:25;102297.72;;;34.49;34.32
49397;BME280;35615;41.410;2.194;2023-10-09T10:58:01;102299.81;;;34.41;36.09
49397;BME280;35615;41.410;2.194;2023-10-09T11:00:29;102298.69;;;34.46;35.20
49397;BME280;35615;41.410;2.194;2023-10-09T11:03:21;102298.81;;;34.43;35.84
49397;BME280;35615;41.410;2.194;2023-10-09T11:06:03;102293.47;;;34.18;36.90
49397;BME280;35615;41.410;2.194;2023-10-09T11:08:52;102295.13;;;33.69;38.27
49397;BME280;35615;41.410;2.194;2023-10-09T11:11:24;102302.00;;;34.29;37.76
49397;BME280;35615;41.410;2.194;2023-10-09T11:14:08;102285.78;;;34.79;36.95
49397;BME280;35615;41.410;2.194;2023-10-09T11:16:36;102297.22;;;33.88;37.70
49397;BME280;35615;41.410;2.194;2023-10-09T11:19:03;102299.56;;;33.44;39.18
49397;BME280;35615;41.410;2.194;2023-10-09T11:22:00;102284.25;;;32.62;41.37
49397;BME280;35615;41.410;2.194;2023-10-09T11:24:39;102290.53;;;32.90;40.70
49397;BME280;35615;41.410;2.194;2023-10-09T11:27:10;102280.38;;;33.02;40.59
49397;BME280;35615;41.410;2.194;2023-10-09T11:29:51;102271.13;;;32.84;41.25
49397;BME280;35615;41.410;2.194;2023-10-09T11:32:24;102265.84;;;33.38;40.41
49397;BME280;35615;41.410;2.194;2023-10-09T11:35:12;102264.44;;;33.53;39.82
49397;BME280;35615;41.410;2.194;2023-10-09T11:37:56;102274.19;;;32.41;41.67
49397;BME280;35615;41.410;2.194;2023-10-09T11:40:42;102263.13;;;32.81;40.52
49397;BME280;35615;41.410;2.194;2023-10-09T11:43:52;102257.66;;;33.15;40.15
49397;BME280;35615;41.410;2.194;2023-10-09T11:46:21;102249.75;;;32.81;40.98
49397;BME280;35615;41.410;2.194;2023-10-09T11:49:08;102253.72;;;32.67;41.15
49397;BME280;35615;41.410;2.194;2023-10-09T11:51:47;102255.75;;;32.30;42.12
49397;BME280;35615;41.410;2.194;2023-10-09T11:54:34;102240.75;;;32.23;42.25
49397;BME280;35615;41.410;2.194;2023-10-09T11:57:02;102244.72;;;32.70;41.78
49397;BME280;35615;41.410;2.194;2023-10-09T11:59:33;102248.34;;;32.40;42.04
49397;BME280;35615;41.410;2.194;2023-10-09T12:02:09;102236.41;;;32.51;42.01
49397;BME280;35615;41.410;2.194;2023-10-09T12:04:43;102232.91;;;33.33;40.38
49397;BME280;35615;41.410;2.194;2023-10-09T12:07:12;102232.31;;;32.67;41.37
49397;BME280;35615;41.410;2.194;2023-10-09T12:19:31;102215.97;;;33.06;39.26
49397;BME280;35615;41.410;2.194;2023-10-09T12:22:00;102218.50;;;33.39;39.70
49397;BME280;35615;41.410;2.194;2023-10-09T12:24:27;102210.84;;;33.27;38.71
49397;BME280;35615;41.410;2.194;2023-10-09T12:26:56;102213.91;;;33.67;37.77
49397;BME280;35615;41.410;2.194;2023-10-09T12:29:23;102207.41;;;34.48;36.63
49397;BME280;35615;41.410;2.194;2023-10-09T12:31:51;102203.47;;;34.56;36.95
49397;BME280;35615;41.410;2.194;2023-10-09T12:34:26;102193.13;;;35.13;35.68
49397;BME280;35615;41.410;2.194;2023-10-09T12:36:58;102194.84;;;35.37;35.25
49397;BME280;35615;41.410;2.194;2023-10-09T12:39:33;102196.72;;;35.76;34.68
49397;BME280;35615;41.410;2.194;2023-10-09T12:45:00;102198.06;;;35.03;35.40
49397;BME280;35615;41.410;2.194;2023-10-09T12:47:46;102189.53;;;34.70;35.61
49397;BME280;35615;41.410;2.194;2023-10-09T12:50:17;102180.47;;;35.38;35.03
49397;BME280;35615;41.410;2.194;2023-10-09T12:52:55;102183.78;;;35.01;35.81
49397;BME280;35615;41.410;2.194;2023-10-09T12:55:38;102178.91;;;35.53;34.88
49397;BME280;35615;41.410;2.194;2023-10-09T12:58:15;102175.56;;;35.06;36.27
49397;BME280;35615;41.410;2.194;2023-10-09T13:00:48;102172.13;;;35.65;35.21
49397;BME280;35615;41.410;2.194;2023-10-09T13:03:20;102170.34;;;35.84;35.12
49397;BME280;35615;41.410;2.194;2023-10-09T13:05:59;102170.38;;;35.64;35.28
49397;BME280;35615;41.410;2.194;2023-10-09T13:08:30;102170.56;;;33.79;38.19
49397;BME280;35615;41.410;2.194;2023-10-09T13:11:26;102175.28;;;34.90;36.38
49397;BME280;35615;41.410;2.194;2023-10-09T13:14:04;102166.44;;;35.30;35.44
49397;BME280;35615;41.410;2.194;2023-10-09T13:19:29;102169.97;;;35.10;36.24
49397;BME280;35615;41.410;2.194;2023-10-09T13:21:59;102161.03;;;35.52;35.17
49397;BME280;35615;41.410;2.194;2023-10-09T13:24:30;102162.88;;;35.30;35.06
49397;BME280;35615;41.410;2.194;2023-10-09T13:27:00;102160.81;;;35.57;34.84
49397;BME280;35615;41.410;2.194;2023-10-09T13:29:46;102156.88;;;34.59;36.53
49397;BME280;35615;41.410;2.194;2023-10-09T13:32:18;102161.81;;;34.91;35.86
49397;BME280;35615;41.410;2.194;2023-10-09T13:34:53;102156.38;;;35.56;34.58
49397;BME280;35615;41.410;2.194;2023-10-09T13:37:23;102154.13;;;35.24;34.14
49397;BME280;35615;41.410;2.194;2023-10-09T13:39:50;102150.06;;;35.16;34.73
49397;BME280;35615;41.410;2.194;2023-10-09T13:42:43;102148.84;;;34.57;36.04
49397;BME280;35615;41.410;2.194;2023-10-09T13:45:22;102158.34;;;34.66;35.75
49397;BME280;35615;41.410;2.194;2023-10-09T13:47:59;102154.13;;;34.37;35.95
49397;BME280;35615;41.410;2.194;2023-10-09T13:50:41;102142.31;;;34.64;34.30
49397;BME280;35615;41.410;2.194;2023-10-09T13:53:18;102138.88;;;35.25;33.81
49397;BME280;35615;41.410;2.194;2023-10-09T13:55:53;102153.13;;;34.85;35.46
49397;BME280;35615;41.410;2.194;2023-10-09T13:58:32;102155.88;;;35.05;34.77
49397;BME280;35615;41.410;2.194;2023-10-09T14:01:08;102150.44;;;34.63;35.50
49397;BME280;35615;41.410;2.194;2023-10-09T14:03:48;102140.13;;;34.74;36.07
49397;BME280;35615;41.410;2.194;2023-10-09T14:06:25;102134.63;;;34.32;35.92
49397;BME280;35615;41.410;2.194;2023-10-09T14:09:20;102137.94;;;34.84;35.17
49397;BME280;35615;41.410;2.194;2023-10-09T14:12:32;102134.38;;;35.05;35.62
49397;BME280;35615;41.410;2.194;2023-10-09T14:15:12;102136.13;;;34.41;36.69
49397;BME280;35615;41.410;2.194;2023-10-09T14:17:52;102141.81;;;34.31;36.95
49397;BME280;35615;41.410;2.194;2023-10-09T14:20:25;102135.25;;;33.43;38.27
49397;BME280;35615;41.410;2.194;2023-10-09T14:23:01;102141.81;;;33.08;38.56
49397;BME280;35615;41.410;2.194;2023-10-09T14:28:26;102131.97;;;32.81;39.87
49397;BME280;35615;41.410;2.194;2023-10-09T14:31:07;102132.53;;;32.64;39.82
49397;BME280;35615;41.410;2.194;2023-10-09T14:33:57;102131.50;;;32.40;40.31
49397;BME280;35615;41.410;2.194;2023-10-09T14:36:27;102136.44;;;32.82;39.82
49397;BME280;35615;41.410;2.194;2023-10-09T14:39:10;102141.97;;;31.55;41.45